Orange, Connecticut
Current Conditions -  °F | °C
As of 2:53 PM on Friday 28 Nov 2014 (Local Time) from KHVN Reporting Station
Broken Clouds Broken Clouds  
Wind Chill: 33°   Ceiling: 4700
Heat Index: 40°   Visibility: 10mi
Dew Point: 19°   Wind: 10mph
Humidity: 43%   Direction: 310°NW
Pressure: 30.12"   Gusts: 17mph
Location:  41.28°N, 73.03°W
Report Text: KHVN 281953Z AUTO 31009G15KT 10SM BKN047 04/M07 A3012 RMK AO2 SLP200 T00441072
Loading
Personal Weather Stations






























Interactive Weather Map New forecast layout! Learn more

10-Day Weather Forecast

Advertisements
Track Severe Weather on mobile